Time,TemperatureF,DewpointF,PressureIn,WindDirection,WindDirectionDegrees,WindSpeedMPH,WindSpeedGustMPH,Humidity,HourlyPrecipIn,Conditions,Clouds,dailyrainin,SoftwareType,DateUTC
2013-09-11 00:20:00,51.4,38.0,29.90,NNW,332,0.0,0.0,60,0.00,,---,0.00,VWS V14.01,2013-09-11 07:20:00,
2013-09-11 00:39:00,50.4,37.4,29.90,NNW,332,0.0,0.0,61,0.00,,---,0.00,VWS V14.01,2013-09-11 07:39:00,
2013-09-11 01:00:00,50.9,38.4,29.90,NNW,332,0.0,0.0,62,0.00,,---,0.00,VWS V14.01,2013-09-11 08:00:00,
2013-09-11 01:20:00,50.0,37.9,29.90,NNW,332,0.0,0.0,63,0.00,,---,0.00,VWS V14.01,2013-09-11 08:20:00,
2013-09-11 01:40:00,48.9,38.5,29.90,NNW,332,0.0,0.0,67,0.00,,---,0.00,VWS V14.01,2013-09-11 08:40:00,
2013-09-11 02:00:00,49.1,39.0,29.90,NNW,332,0.0,0.0,68,0.00,,---,0.00,VWS V14.01,2013-09-11 09:00:00,
2013-09-11 02:19:00,50.2,37.7,29.90,NNW,332,0.0,0.0,62,0.00,,---,0.00,VWS V14.01,2013-09-11 09:19:00,
2013-09-11 02:39:00,48.9,38.5,29.87,NNW,332,0.0,0.0,67,0.00,,---,0.00,VWS V14.01,2013-09-11 09:39:00,
2013-09-11 03:00:00,50.2,36.4,29.90,NNW,332,0.0,0.0,59,0.00,,---,0.00,VWS V14.01,2013-09-11 10:00:00,
2013-09-11 03:20:00,50.4,35.7,29.87,NNW,332,0.0,0.0,57,0.00,,---,0.00,VWS V14.01,2013-09-11 10:20:00,
2013-09-11 03:40:00,50.2,35.1,29.87,NNW,332,0.0,0.0,56,0.00,,---,0.00,VWS V14.01,2013-09-11 10:40:00,
2013-09-11 04:00:00,49.5,35.3,29.87,NNW,332,0.0,0.0,58,0.00,,---,0.00,VWS V14.01,2013-09-11 11:00:00,
2013-09-11 04:20:00,48.7,34.6,29.87,NNW,332,0.0,0.0,58,0.00,,---,0.00,VWS V14.01,2013-09-11 11:20:00,
2013-09-11 04:40:00,47.7,35.3,29.87,NNW,332,0.0,0.0,62,0.00,,---,0.00,VWS V14.01,2013-09-11 11:40:00,
2013-09-11 05:00:00,50.0,35.4,29.87,NNW,332,0.0,0.0,57,0.00,,---,0.00,VWS V14.01,2013-09-11 12:00:00,
2013-09-11 05:20:00,48.2,35.0,29.87,NNW,332,0.0,0.0,60,0.00,,---,0.00,VWS V14.01,2013-09-11 12:20:00,
2013-09-11 05:40:00,48.0,36.0,29.90,NNW,332,0.0,0.0,63,0.00,,---,0.00,VWS V14.01,2013-09-11 12:40:00,
2013-09-11 06:00:00,50.0,34.9,29.90,NNW,332,0.0,0.0,56,0.00,,---,0.00,VWS V14.01,2013-09-11 13:00:00,
2013-09-11 06:20:00,48.2,34.6,29.90,NNW,332,0.0,0.0,59,0.00,,---,0.00,VWS V14.01,2013-09-11 13:20:00,
2013-09-11 06:40:00,50.0,34.0,29.90,NNW,332,0.0,0.0,54,0.00,,---,0.00,VWS V14.01,2013-09-11 13:40:00,
2013-09-11 07:00:00,48.7,34.6,29.90,NNW,332,0.0,0.0,58,0.00,,---,0.00,VWS V14.01,2013-09-11 14:00:00,
2013-09-11 07:20:00,50.5,37.2,29.90,NNW,332,0.0,0.0,60,0.00,,---,0.00,VWS V14.01,2013-09-11 14:20:00,
2013-09-11 07:40:00,54.7,35.4,29.90,NNW,332,0.0,2.7,48,0.00,,---,0.00,VWS V14.01,2013-09-11 14:40:00,
2013-09-11 08:00:00,57.2,37.2,29.90,North,9,0.0,3.6,47,0.00,,---,0.00,VWS V14.01,2013-09-11 15:00:00,
2013-09-11 08:20:00,60.1,39.8,29.90,NNW,329,2.7,4.0,47,0.00,,---,0.00,VWS V14.01,2013-09-11 15:20:00,
2013-09-11 08:40:00,63.9,41.0,29.90,NW,310,0.0,3.6,43,0.00,,---,0.00,VWS V14.01,2013-09-11 15:40:00,
2013-09-11 09:00:00,67.3,45.2,29.93,NW,324,0.0,3.6,45,0.00,,---,0.00,VWS V14.01,2013-09-11 16:00:00,
2013-09-11 09:20:00,69.6,47.4,29.93,NNE,20,3.6,4.0,45,0.00,,---,0.00,VWS V14.01,2013-09-11 16:20:00,
2013-09-11 09:40:00,72.7,49.5,29.93,SSW,205,4.0,4.0,44,0.00,,---,0.00,VWS V14.01,2013-09-11 16:40:00,
2013-09-11 10:00:00,75.6,51.5,29.93,South,183,2.2,5.8,43,0.00,,---,0.00,VWS V14.01,2013-09-11 17:00:00,
2013-09-11 10:20:00,78.4,55.4,29.93,SW,218,3.1,8.3,45,0.00,,---,0.00,VWS V14.01,2013-09-11 17:20:00,
2013-09-11 10:40:00,81.9,57.8,29.93,SW,224,0.0,7.6,44,0.00,,---,0.00,VWS V14.01,2013-09-11 17:40:00,
2013-09-11 11:00:00,81.7,57.7,29.93,WNW,302,4.0,8.3,44,0.00,,---,0.00,VWS V14.01,2013-09-11 18:00:00,
2013-09-11 11:40:00,81.3,59.2,29.93,SW,226,5.8,8.7,47,0.00,,---,0.00,VWS V14.01,2013-09-11 18:40:00,
2013-09-11 12:00:00,80.6,58.5,29.93,SSE,167,2.7,10.1,47,0.00,,---,0.00,VWS V14.01,2013-09-11 19:00:00,
2013-09-11 12:20:00,81.3,59.2,29.93,SSW,205,3.6,7.6,47,0.00,,---,0.00,VWS V14.01,2013-09-11 19:20:00,
2013-09-11 12:40:00,81.0,58.9,29.93,West,259,4.0,10.1,47,0.00,,---,0.00,VWS V14.01,2013-09-11 19:40:00,
2013-09-11 13:00:00,82.0,59.8,29.93,West,262,2.7,9.6,47,0.00,,---,0.00,VWS V14.01,2013-09-11 20:00:00,
2013-09-11 13:20:00,84.2,62.4,29.93,South,190,3.1,11.0,48,0.00,,---,0.00,VWS V14.01,2013-09-11 20:20:00,
2013-09-11 13:40:00,88.2,66.0,29.93,SSW,201,3.6,8.1,48,0.00,,---,0.00,VWS V14.01,2013-09-11 20:40:00,
2013-09-11 14:00:00,89.8,66.9,29.93,WNW,297,3.6,8.3,47,0.00,,---,0.00,VWS V14.01,2013-09-11 21:00:00,
2013-09-11 14:20:00,86.7,64.7,29.93,SSW,211,5.4,12.3,48,0.00,,---,0.00,VWS V14.01,2013-09-11 21:20:00,
2013-09-11 14:40:00,87.1,65.0,29.93,SSW,195,8.7,10.5,48,0.00,,---,0.00,VWS V14.01,2013-09-11 21:40:00,
2013-09-11 15:00:00,87.6,65.5,29.90,SSW,211,5.4,10.5,48,0.00,,---,0.00,VWS V14.01,2013-09-11 22:00:00,
2013-09-11 15:20:00,86.5,64.5,29.90,South,186,5.4,12.8,48,0.00,,---,0.00,VWS V14.01,2013-09-11 22:20:00,
2013-09-11 15:40:00,88.9,66.7,29.90,North,357,5.8,8.7,48,0.00,,---,0.00,VWS V14.01,2013-09-11 22:40:00,
2013-09-11 16:00:00,86.2,64.2,29.90,SW,222,5.8,10.1,48,0.00,,---,0.00,VWS V14.01,2013-09-11 23:00:00,
2013-09-11 16:20:00,87.3,65.2,29.90,WSW,241,4.5,8.3,48,0.00,,---,0.00,VWS V14.01,2013-09-11 23:20:00,
2013-09-11 16:40:00,87.1,65.0,29.90,WSW,245,3.6,8.7,48,0.00,,---,0.00,VWS V14.01,2013-09-11 23:40:00,
2013-09-11 17:00:00,83.8,62.7,29.90,South,187,4.9,11.0,49,0.00,,---,0.00,VWS V14.01,2013-09-12 00:00:00,
2013-09-11 17:20:00,84.4,62.6,29.90,SSW,201,3.6,7.2,48,0.00,,---,0.00,VWS V14.01,2013-09-12 00:20:00,
2013-09-11 17:40:00,80.4,60.1,29.90,SW,219,6.3,8.3,50,0.00,,---,0.00,VWS V14.01,2013-09-12 00:40:00,
2013-09-11 18:00:00,72.5,53.4,29.90,SSW,198,2.7,6.3,51,0.00,,---,0.00,VWS V14.01,2013-09-12 01:00:00,
2013-09-11 18:20:00,70.2,51.7,29.90,SSW,205,2.2,5.8,52,0.00,,---,0.00,VWS V14.01,2013-09-12 01:20:00,
2013-09-11 18:40:00,67.8,49.6,29.90,SSW,192,0.0,4.0,52,0.00,,---,0.00,VWS V14.01,2013-09-12 01:40:00,
2013-09-11 19:00:00,64.2,45.7,29.90,NE,54,0.0,2.7,51,0.00,,---,0.00,VWS V14.01,2013-09-12 02:00:00,
2013-09-11 19:20:00,61.9,43.6,29.90,NNE,15,2.7,3.6,51,0.00,,---,0.00,VWS V14.01,2013-09-12 02:20:00,
2013-09-11 19:40:00,59.5,41.9,29.90,NNE,19,0.0,3.1,52,0.00,,---,0.00,VWS V14.01,2013-09-12 02:40:00,
2013-09-11 20:00:00,58.3,40.8,29.90,NNE,18,0.0,0.0,52,0.00,,---,0.00,VWS V14.01,2013-09-12 03:00:00,
2013-09-11 20:20:00,57.6,38.6,29.90,North,8,0.0,0.0,49,0.00,,---,0.00,VWS V14.01,2013-09-12 03:20:00,
2013-09-11 20:40:00,57.2,38.2,29.90,North,350,0.0,0.0,49,0.00,,---,0.00,VWS V14.01,2013-09-12 03:40:00,
2013-09-11 21:00:00,56.7,38.2,29.90,North,357,2.7,2.7,50,0.00,,---,0.00,VWS V14.01,2013-09-12 04:00:00,
2013-09-11 21:20:00,56.8,38.4,29.93,NNW,344,0.0,3.1,50,0.00,,---,0.00,VWS V14.01,2013-09-12 04:20:00,
2013-09-11 21:40:00,54.1,34.9,29.90,NNW,344,0.0,0.0,48,0.00,,---,0.00,VWS V14.01,2013-09-12 04:40:00,
2013-09-11 22:00:00,54.1,34.9,29.93,NNW,344,0.0,0.0,48,0.00,,---,0.00,VWS V14.01,2013-09-12 05:00:00,
2013-09-11 22:20:00,53.6,34.4,29.93,NNE,21,0.0,3.6,48,0.00,,---,0.00,VWS V14.01,2013-09-12 05:20:00,
2013-09-11 22:40:00,51.6,33.1,29.93,NNE,21,0.0,2.7,49,0.00,,---,0.00,VWS V14.01,2013-09-12 05:40:00,
2013-09-11 23:00:00,51.6,33.1,29.90,NNE,21,0.0,0.0,49,0.00,,---,0.00,VWS V14.01,2013-09-12 06:00:00,
2013-09-11 23:20:00,50.4,31.9,29.93,NNE,21,0.0,0.0,49,0.00,,---,0.00,VWS V14.01,2013-09-12 06:20:00,
2013-09-11 23:40:00,49.8,31.4,29.90,NNE,21,0.0,0.0,49,0.00,,---,0.00,VWS V14.01,2013-09-12 06:40:00,